Time;durP1;ratioP1;P1;durP2;ratioP2;P2;SDS_P1;SDS_P2;PMS_P1;PMS_P2;Temp;Humidity;BMP_temperature;BMP_pressure;BME280_temperature;BME280_humidity;BME280_pressure;Samples;Min_cycle;Max_cycle;Signal;HPM_P1;HPM_P2
2022/01/19 00:01:49;;;;;;;;;;;;;;;;;;5085936;28;19915;-72
2022/01/19 00:04:14;;;;;;;;;;;;;;;;;;5086130;28;19912;-72
2022/01/19 00:06:40;;;;;;;;;;;;;;;;;;5085970;28;20906;-71
2022/01/19 00:09:06;;;;;;;;;;;;;;;;;;5086428;28;19958;-71
2022/01/19 00:11:32;;;;;;;;;;;;;;;;;;5085708;28;20034;-71
2022/01/19 00:13:58;;;;;;;;;;;;;;;;;;5085208;28;19944;-70
2022/01/19 00:16:25;;;;;;;;;;;;;;;;;;5086524;28;20019;-70
2022/01/19 00:18:51;;;;;;;;;;;;;;;;;;5085487;28;19915;-71
2022/01/19 00:21:16;;;;;;;;;;;;;;;;;;5086072;28;19991;-72
2022/01/19 00:23:42;;;;;;;;;;;;;;;;;;5085340;28;20723;-71
2022/01/19 00:26:08;;;;;;;;;;;;;;;;;;5085547;28;20323;-71
2022/01/19 00:28:34;;;;;;;;;;;;;;;;;;5082397;28;20034;-71
2022/01/19 00:31:00;;;;;;;;;;;;;;;;;;5085380;28;19921;-71
2022/01/19 00:33:26;;;;;;;;;;;;;;;;;;5085504;28;20290;-71
2022/01/19 00:35:52;;;;;;;;;;;;;;;;;;5085476;28;19956;-71
2022/01/19 00:38:18;;;;;;;;;;;;;;;;;;5085334;28;19952;-73
2022/01/19 00:40:44;;;;;;;;;;;;;;;;;;5085047;28;19982;-71
2022/01/19 00:43:10;;;;;;;;;;;;;;;;;;5079774;28;19908;-71
2022/01/19 00:45:36;;;;;;;;;;;;;;;;;;5081243;28;19916;-70
2022/01/19 00:48:02;;;;;;;;;;;;;;;;;;5085562;28;19952;-71
2022/01/19 00:50:28;;;;;;;;;;;;;;;;;;5084260;28;20656;-70
2022/01/19 00:52:54;;;;;;;;;;;;;;;;;;5084718;28;19955;-70
2022/01/19 00:55:20;;;;;;;;;;;;;;;;;;5084200;28;19966;-70
2022/01/19 00:57:46;;;;;;;;;;;;;;;;;;5084315;28;20389;-71
2022/01/19 01:00:12;;;;;;;;;;;;;;;;;;5084604;28;19944;-71
2022/01/19 01:02:38;;;;;;;;;;;;;;;;;;5076019;28;19983;-71
2022/01/19 01:05:04;;;;;;;;;;;;;;;;;;5071459;28;20377;-72
2022/01/19 01:07:33;;;;;;;;;;;;;;;;;;5071359;28;20009;-72
2022/01/19 01:09:59;;;;;;;;;;;;;;;;;;5071329;28;19919;-72
2022/01/19 01:12:41;;;;;;;;;;;;;;;;;;5067133;28;19948;-72
2022/01/19 01:15:26;;;;;;;;;;;;;;;;;;5054480;28;19913;-72
2022/01/19 01:20:30;;;;;;;;;;;;;;;;;;5070699;28;19908;-72
2022/01/19 01:22:56;;;;;;;;;;;;;;;;;;5068540;28;20269;-71
2022/01/19 01:25:23;;;;;;;;;;;;;;;;;;5070100;28;19998;-70
2022/01/19 01:27:49;;;;;;;;;;;;;;;;;;5066423;28;20362;-71
2022/01/19 01:30:15;;;;;;;;;;;;;;;;;;5051137;28;19964;-71
2022/01/19 01:32:41;;;;;;;;;;;;;;;;;;5070585;28;19909;-72
2022/01/19 01:35:07;;;;;;;;;;;;;;;;;;5071305;28;19912;-72
2022/01/19 01:37:33;;;;;;;;;;;;;;;;;;5070801;28;20317;-71
2022/01/19 01:40:01;;;;;;;;;;;;;;;;;;5071047;28;19913;-71
2022/01/19 01:42:27;;;;;;;;;;;;;;;;;;5070314;28;20651;-70
2022/01/19 01:44:58;;;;;;;;;;;;;;;;;;5070696;28;20333;-70
2022/01/19 01:47:25;;;;;;;;;;;;;;;;;;5070958;28;19909;-71
2022/01/19 01:55:03;;;;;;;;;;;;;;;;;;5070714;28;20401;-71
2022/01/19 01:57:29;;;;;;;;;;;;;;;;;;5065348;28;20375;-72
2022/01/19 01:59:55;;;;;;;;;;;;;;;;;;5066059;28;20004;-71
2022/01/19 02:02:20;;;;;;;;;;;;;;;;;;5070408;28;19909;-71
2022/01/19 02:04:46;;;;;;;;;;;;;;;;;;5070446;28;20281;-71
2022/01/19 02:09:56;;;;;;;;;;;;;;;;;;5070358;28;19930;-71
2022/01/19 02:25:48;;;;;;;;;;;;;;;;;;5070161;28;19951;-71
2022/01/19 02:41:46;;;;;;;;;;;;;;;;;;5069819;28;19911;-71
2022/01/19 02:44:16;;;;;;;;;;;;;;;;;;5068765;28;19919;-70
2022/01/19 02:49:18;;;;;;;;;;;;;;;;;;5059742;28;19994;-71
2022/01/19 02:51:44;;;;;;;;;;;;;;;;;;5068535;28;20345;-70
2022/01/19 02:54:10;;;;;;;;;;;;;;;;;;5068920;28;19952;-70
2022/01/19 02:56:38;;;;;;;;;;;;;;;;;;5069099;28;19927;-69
2022/01/19 02:59:15;;;;;;;;;;;;;;;;;;5069311;28;20348;-70
2022/01/19 03:09:42;;;;;;;;;;;;;;;;;;5068910;28;19961;-70
2022/01/19 03:12:09;;;;;;;;;;;;;;;;;;5069032;28;20643;-71
2022/01/19 03:14:36;;;;;;;;;;;;;;;;;;5056320;28;19909;-72
2022/01/19 03:17:02;;;;;;;;;;;;;;;;;;5068757;28;19917;-71
2022/01/19 03:19:30;;;;;;;;;;;;;;;;;;5068019;28;20435;-72
2022/01/19 03:21:56;;;;;;;;;;;;;;;;;;5057077;28;19916;-71
2022/01/19 03:24:22;;;;;;;;;;;;;;;;;;5068440;28;20014;-71
2022/01/19 03:26:50;;;;;;;;;;;;;;;;;;5068508;28;19913;-72
2022/01/19 03:29:16;;;;;;;;;;;;;;;;;;5067791;28;19916;-71
2022/01/19 03:31:42;;;;;;;;;;;;;;;;;;5068107;28;19960;-72
2022/01/19 03:34:08;;;;;;;;;;;;;;;;;;5049216;28;19916;-71
2022/01/19 03:36:34;;;;;;;;;;;;;;;;;;5066369;28;20371;-71
2022/01/19 03:39:00;;;;;;;;;;;;;;;;;;5068722;28;19913;-72
2022/01/19 03:41:26;;;;;;;;;;;;;;;;;;5068378;28;19946;-71
2022/01/19 03:43:52;;;;;;;;;;;;;;;;;;5067450;28;20394;-70
2022/01/19 03:46:18;;;;;;;;;;;;;;;;;;5068059;28;19920;-71
2022/01/19 03:49:08;;;;;;;;;;;;;;;;;;5077741;28;19917;-71
2022/01/19 03:51:34;;;;;;;;;;;;;;;;;;5065691;28;20003;-70
2022/01/19 03:54:00;;;;;;;;;;;;;;;;;;5065197;28;20000;-70
2022/01/19 03:56:26;;;;;;;;;;;;;;;;;;5065609;28;19971;-70
2022/01/19 03:58:52;;;;;;;;;;;;;;;;;;5065177;28;20369;-70
2022/01/19 04:01:18;;;;;;;;;;;;;;;;;;5065253;28;20020;-70
2022/01/19 04:08:45;;;;;;;;;;;;;;;;;;5065292;28;20328;-70
2022/01/19 04:11:13;;;;;;;;;;;;;;;;;;5064869;28;19915;-70
2022/01/19 04:14:21;;;;;;;;;;;;;;;;;;5065590;28;20298;-70
2022/01/19 04:16:30;;;;;;;;;;;;;;;;;;5064817;28;19923;-70
2022/01/19 04:19:18;;;;;;;;;;;;;;;;;;5065306;28;19990;-69
2022/01/19 04:21:44;;;;;;;;;;;;;;;;;;5065047;28;19913;-72
2022/01/19 04:24:10;;;;;;;;;;;;;;;;;;5064804;28;19970;-72
2022/01/19 04:26:36;;;;;;;;;;;;;;;;;;5064380;28;19973;-72
2022/01/19 04:29:02;;;;;;;;;;;;;;;;;;5064221;28;20333;-72
2022/01/19 04:31:28;;;;;;;;;;;;;;;;;;5065223;28;19956;-72
2022/01/19 04:33:58;;;;;;;;;;;;;;;;;;5064925;28;19919;-72
2022/01/19 04:36:34;;;;;;;;;;;;;;;;;;5064970;28;20399;-72
2022/01/19 10:53:44;;;;;;;;;;;;;;;;;;5083104;28;19924;-75
2022/01/19 10:56:10;;;;;;;;;;;;;;;;;;5065512;28;19913;-75
2022/01/19 10:58:36;;;;;;;;;;;;;;;;;;5064157;28;20055;-74
2022/01/19 11:01:02;;;;;;;;;;;;;;;;;;5065622;28;19964;-73
2022/01/19 11:03:28;;;;;;;;;;;;;;;;;;5065821;28;20302;-80
2022/01/19 11:05:54;;;;;;;;;;;;;;;;;;5064480;28;19952;-76
2022/01/19 11:08:22;;;;;;;;;;;;;;;;;;5065992;28;19936;-75
2022/01/19 11:10:49;;;;;;;;;;;;;;;;;;5065277;28;19919;-74
2022/01/19 11:13:18;;;;;;;;;;;;;;;;;;5063943;28;20655;-75
2022/01/19 11:15:44;;;;;;;;;;;;;;;;;;5064697;28;19917;-75
2022/01/19 11:18:10;;;;;;;;;;;;;;;;;;5064998;28;19940;-75
2022/01/19 11:20:36;;;;;;;;;;;;;;;;;;5064423;28;19966;-77
2022/01/19 11:23:02;;;;;;;;;;;;;;;;;;5064539;28;19977;-77
2022/01/19 11:25:28;;;;;;;;;;;;;;;;;;5064054;28;20543;-76
2022/01/19 11:27:54;;;;;;;;;;;;;;;;;;5062794;28;19913;-75
2022/01/19 11:30:20;;;;;;;;;;;;;;;;;;5063710;28;20409;-76
2022/01/19 11:32:46;;;;;;;;;;;;;;;;;;5064899;28;19984;-76
2022/01/19 11:35:12;;;;;;;;;;;;;;;;;;5064783;28;20592;-76
2022/01/19 11:37:37;;;;;;;;;;;;;;;;;;5062832;28;19947;-77
2022/01/19 11:40:03;;;;;;;;;;;;;;;;;;5064682;28;20383;-75
2022/01/19 11:42:29;;;;;;;;;;;;;;;;;;5064637;28;19952;-75
2022/01/19 11:44:55;;;;;;;;;;;;;;;;;;5064923;28;20418;-77
2022/01/19 11:47:21;;;;;;;;;;;;;;;;;;5064920;28;20003;-77
2022/01/19 11:49:47;;;;;;;;;;;;;;;;;;5061552;28;20001;-76
2022/01/19 11:52:19;;;;;;;;;;;;;;;;;;5068959;28;20333;-77
2022/01/19 11:54:44;;;;;;;;;;;;;;;;;;5082784;28;19909;-77
2022/01/19 11:57:11;;;;;;;;;;;;;;;;;;5082880;28;19944;-77
2022/01/19 11:59:37;;;;;;;;;;;;;;;;;;5083895;28;19912;-77
2022/01/19 12:02:38;;;;;;;;;;;;;;;;;;5091483;28;19953;-76
2022/01/19 12:04:57;;;;;;;;;;;;;;;;;;5069746;28;20366;-76
2022/01/19 12:07:23;;;;;;;;;;;;;;;;;;5070810;28;19941;-76
2022/01/19 12:09:49;;;;;;;;;;;;;;;;;;5069998;28;20003;-76
2022/01/19 12:12:17;;;;;;;;;;;;;;;;;;5070200;28;19917;-77
2022/01/19 12:14:51;;;;;;;;;;;;;;;;;;5070662;28;19908;-76
2022/01/19 12:17:26;;;;;;;;;;;;;;;;;;5068461;28;20294;-83
2022/01/19 12:19:52;;;;;;;;;;;;;;;;;;5092786;28;19901;-79
2022/01/19 12:22:27;;;;;;;;;;;;;;;;;;5076140;28;19905;-75
2022/01/19 12:24:53;;;;;;;;;;;;;;;;;;5086819;28;19913;-74
2022/01/19 12:27:19;;;;;;;;;;;;;;;;;;5087812;28;19899;-74
2022/01/19 12:29:45;;;;;;;;;;;;;;;;;;5081416;28;19981;-75
2022/01/19 12:32:11;;;;;;;;;;;;;;;;;;5079537;28;19912;-76
2022/01/19 12:35:26;;;;;;;;;;;;;;;;;;5080958;28;19909;-76
2022/01/19 12:37:25;;;;;;;;;;;;;;;;;;5080758;28;19920;-76
2022/01/19 12:40:04;;;;;;;;;;;;;;;;;;5092292;28;19908;-75
2022/01/19 12:42:39;;;;;;;;;;;;;;;;;;5087428;28;20380;-76
2022/01/19 12:47:50;;;;;;;;;;;;;;;;;;5089283;28;20381;-76
2022/01/19 12:53:13;;;;;;;;;;;;;;;;;;5092652;28;19928;-76
2022/01/19 12:55:40;;;;;;;;;;;;;;;;;;5076943;28;19935;-76
2022/01/19 12:58:06;;;;;;;;;;;;;;;;;;5067443;28;20375;-75
2022/01/19 13:00:32;;;;;;;;;;;;;;;;;;5066727;28;19966;-75
2022/01/19 13:02:58;;;;;;;;;;;;;;;;;;5050419;28;19999;-76
2022/01/19 13:05:29;;;;;;;;;;;;;;;;;;5066304;28;19955;-74
2022/01/19 13:07:58;;;;;;;;;;;;;;;;;;5067310;28;19909;-75
2022/01/19 13:16:04;;;;;;;;;;;;;;;;;;5050998;28;19969;-76
2022/01/19 13:18:30;;;;;;;;;;;;;;;;;;5029979;28;19948;-75
2022/01/19 13:20:56;;;;;;;;;;;;;;;;;;5045401;28;19960;-75
2022/01/19 13:26:13;;;;;;;;;;;;;;;;;;5069502;28;19916;-78
2022/01/19 13:28:39;;;;;;;;;;;;;;;;;;5055067;28;20003;-76
2022/01/19 13:31:05;;;;;;;;;;;;;;;;;;5047079;28;20034;-78
2022/01/19 13:33:31;;;;;;;;;;;;;;;;;;5047759;28;19999;-77
2022/01/19 13:35:57;;;;;;;;;;;;;;;;;;5048301;28;20397;-77
2022/01/19 13:38:23;;;;;;;;;;;;;;;;;;5049236;28;20339;-76
2022/01/19 13:40:49;;;;;;;;;;;;;;;;;;5048677;28;20361;-76
2022/01/19 13:43:19;;;;;;;;;;;;;;;;;;5044719;28;20032;-77
2022/01/19 13:50:39;;;;;;;;;;;;;;;;;;5036903;28;19932;-74
2022/01/19 13:58:37;;;;;;;;;;;;;;;;;;5031147;28;19944;-75
2022/01/19 14:01:04;;;;;;;;;;;;;;;;;;5052673;28;19919;-76
2022/01/19 14:03:30;;;;;;;;;;;;;;;;;;5066248;28;19908;-76
2022/01/19 14:05:58;;;;;;;;;;;;;;;;;;5068342;28;20009;-76
2022/01/19 14:08:24;;;;;;;;;;;;;;;;;;5068620;28;19909;-76
2022/01/19 14:10:50;;;;;;;;;;;;;;;;;;5069332;28;19994;-77
2022/01/19 14:13:17;;;;;;;;;;;;;;;;;;5067913;28;19924;-77
2022/01/19 14:15:43;;;;;;;;;;;;;;;;;;5068580;28;19919;-77
2022/01/19 14:18:09;;;;;;;;;;;;;;;;;;5079705;28;19959;-77
2022/01/19 14:20:35;;;;;;;;;;;;;;;;;;5068390;28;20356;-77
2022/01/19 14:23:01;;;;;;;;;;;;;;;;;;5068459;28;19992;-76
2022/01/19 14:25:27;;;;;;;;;;;;;;;;;;5068578;28;19982;-76
2022/01/19 14:27:53;;;;;;;;;;;;;;;;;;5068638;28;19948;-76
2022/01/19 14:30:20;;;;;;;;;;;;;;;;;;5081278;28;20302;-77
2022/01/19 14:32:46;;;;;;;;;;;;;;;;;;5076116;28;19920;-76
2022/01/19 14:35:12;;;;;;;;;;;;;;;;;;5068267;28;19934;-76
2022/01/19 14:37:38;;;;;;;;;;;;;;;;;;5067683;28;20297;-76
2022/01/19 14:40:04;;;;;;;;;;;;;;;;;;5066756;28;20720;-76
2022/01/19 14:42:31;;;;;;;;;;;;;;;;;;5066115;28;19996;-76
2022/01/19 14:45:01;;;;;;;;;;;;;;;;;;5067762;28;20261;-76
2022/01/19 14:47:31;;;;;;;;;;;;;;;;;;5067988;28;20294;-78
2022/01/19 14:49:56;;;;;;;;;;;;;;;;;;5062575;28;19951;-78
2022/01/19 14:52:22;;;;;;;;;;;;;;;;;;5067353;28;19986;-76
2022/01/19 14:54:49;;;;;;;;;;;;;;;;;;5067887;28;19947;-77
2022/01/19 14:57:15;;;;;;;;;;;;;;;;;;5068098;28;19920;-77
2022/01/19 14:59:41;;;;;;;;;;;;;;;;;;5067285;28;20335;-76
2022/01/19 15:02:07;;;;;;;;;;;;;;;;;;5066838;28;19962;-78
2022/01/19 15:04:36;;;;;;;;;;;;;;;;;;5067296;28;19916;-77
2022/01/19 15:07:02;;;;;;;;;;;;;;;;;;5067441;28;19919;-77
2022/01/19 15:09:28;;;;;;;;;;;;;;;;;;5067607;28;20462;-77
2022/01/19 15:11:55;;;;;;;;;;;;;;;;;;5067787;28;19961;-78
2022/01/19 15:14:21;;;;;;;;;;;;;;;;;;5067556;28;19908;-77
2022/01/19 15:16:47;;;;;;;;;;;;;;;;;;5067663;28;20420;-77
2022/01/19 15:19:13;;;;;;;;;;;;;;;;;;5062122;28;20074;-77
2022/01/19 15:21:39;;;;;;;;;;;;;;;;;;5064478;28;19936;-76
2022/01/19 15:24:05;;;;;;;;;;;;;;;;;;5067898;28;19908;-77
2022/01/19 15:26:31;;;;;;;;;;;;;;;;;;5067601;28;19909;-77
2022/01/19 15:28:59;;;;;;;;;;;;;;;;;;5063528;28;19912;-77
2022/01/19 15:31:25;;;;;;;;;;;;;;;;;;5066101;28;20011;-76
2022/01/19 15:33:53;;;;;;;;;;;;;;;;;;5067378;28;20462;-77
2022/01/19 15:36:19;;;;;;;;;;;;;;;;;;5066634;28;19995;-76
2022/01/19 15:38:45;;;;;;;;;;;;;;;;;;5068686;28;20345;-76
2022/01/19 15:41:11;;;;;;;;;;;;;;;;;;5071492;28;19970;-76
2022/01/19 15:43:37;;;;;;;;;;;;;;;;;;5071252;28;20282;-75
2022/01/19 15:46:03;;;;;;;;;;;;;;;;;;5070725;28;19962;-77
2022/01/19 15:48:30;;;;;;;;;;;;;;;;;;5071212;28;19920;-76
2022/01/19 15:50:56;;;;;;;;;;;;;;;;;;5071256;28;19978;-75
2022/01/19 15:53:22;;;;;;;;;;;;;;;;;;5071138;28;19924;-76
2022/01/19 15:55:48;;;;;;;;;;;;;;;;;;5070803;28;19959;-75
2022/01/19 15:58:15;;;;;;;;;;;;;;;;;;5070747;28;20655;-74
2022/01/19 16:00:42;;;;;;;;;;;;;;;;;;5070778;28;19946;-75
2022/01/19 16:03:09;;;;;;;;;;;;;;;;;;5071055;28;19912;-75
2022/01/19 16:05:35;;;;;;;;;;;;;;;;;;5071018;28;19909;-78
2022/01/19 16:08:01;;;;;;;;;;;;;;;;;;5070519;28;19967;-75
2022/01/19 16:10:27;;;;;;;;;;;;;;;;;;5070471;28;20363;-74
2022/01/19 16:12:52;;;;;;;;;;;;;;;;;;5070819;28;20374;-75
2022/01/19 16:15:21;;;;;;;;;;;;;;;;;;5076254;28;19913;-74
2022/01/19 16:17:47;;;;;;;;;;;;;;;;;;5070871;28;19913;-73
2022/01/19 16:20:14;;;;;;;;;;;;;;;;;;5070687;28;20046;-74
2022/01/19 16:28:10;;;;;;;;;;;;;;;;;;5066438;28;19959;-75
2022/01/19 16:30:40;;;;;;;;;;;;;;;;;;5053062;28;19920;-75
2022/01/19 16:33:06;;;;;;;;;;;;;;;;;;5069820;28;20309;-75
2022/01/19 16:35:32;;;;;;;;;;;;;;;;;;5069440;28;19965;-73
2022/01/19 16:37:58;;;;;;;;;;;;;;;;;;5070196;28;19915;-74
2022/01/19 16:40:29;;;;;;;;;;;;;;;;;;5070225;28;19999;-76
2022/01/19 16:42:55;;;;;;;;;;;;;;;;;;5070415;28;19919;-76
2022/01/19 16:45:21;;;;;;;;;;;;;;;;;;5069448;28;19909;-75
2022/01/19 16:47:53;;;;;;;;;;;;;;;;;;5069753;28;20346;-76
2022/01/19 16:50:20;;;;;;;;;;;;;;;;;;5061278;28;20432;-76
2022/01/19 16:52:45;;;;;;;;;;;;;;;;;;5068517;28;19947;-75
2022/01/19 16:55:11;;;;;;;;;;;;;;;;;;5069985;28;20382;-76
2022/01/19 16:57:37;;;;;;;;;;;;;;;;;;5068435;28;19991;-75
2022/01/19 17:00:03;;;;;;;;;;;;;;;;;;5070068;28;20007;-79
2022/01/19 17:02:29;;;;;;;;;;;;;;;;;;5069984;28;19912;-76
2022/01/19 17:04:55;;;;;;;;;;;;;;;;;;5069564;28;19919;-73
2022/01/19 17:07:21;;;;;;;;;;;;;;;;;;5069113;28;19909;-73
2022/01/19 17:09:47;;;;;;;;;;;;;;;;;;5069734;28;19977;-72
2022/01/19 17:12:18;;;;;;;;;;;;;;;;;;5069174;28;20011;-73
2022/01/19 17:14:44;;;;;;;;;;;;;;;;;;5078856;28;20294;-74
2022/01/19 17:17:14;;;;;;;;;;;;;;;;;;5072191;28;19952;-73
2022/01/19 17:19:40;;;;;;;;;;;;;;;;;;5069104;28;20003;-72
2022/01/19 17:22:06;;;;;;;;;;;;;;;;;;5069139;28;20286;-73
2022/01/19 17:24:32;;;;;;;;;;;;;;;;;;5069087;28;19936;-72
2022/01/19 17:26:59;;;;;;;;;;;;;;;;;;5068099;28;20368;-74
2022/01/19 17:29:25;;;;;;;;;;;;;;;;;;5068971;28;19950;-73
2022/01/19 17:31:51;;;;;;;;;;;;;;;;;;5050015;28;19912;-75
2022/01/19 17:34:17;;;;;;;;;;;;;;;;;;5067113;28;19964;-74
2022/01/19 17:36:43;;;;;;;;;;;;;;;;;;5078518;28;20033;-74
2022/01/19 17:39:09;;;;;;;;;;;;;;;;;;5062177;28;20027;-74
2022/01/19 17:41:36;;;;;;;;;;;;;;;;;;5081479;28;19944;-75
2022/01/19 17:44:02;;;;;;;;;;;;;;;;;;5077006;28;19908;-76
2022/01/19 17:51:58;;;;;;;;;;;;;;;;;;5068113;28;20765;-76
2022/01/19 17:54:25;;;;;;;;;;;;;;;;;;5067227;28;19912;-75
2022/01/19 17:56:51;;;;;;;;;;;;;;;;;;5067458;28;19920;-76
2022/01/19 17:59:19;;;;;;;;;;;;;;;;;;5067954;28;20629;-75
2022/01/19 18:01:45;;;;;;;;;;;;;;;;;;5066699;28;20058;-76
2022/01/19 18:04:11;;;;;;;;;;;;;;;;;;5068602;28;19995;-76
2022/01/19 18:06:37;;;;;;;;;;;;;;;;;;5062032;28;19958;-76
2022/01/19 18:09:02;;;;;;;;;;;;;;;;;;5052463;28;19908;-75
2022/01/19 18:11:28;;;;;;;;;;;;;;;;;;5063077;28;20019;-75
2022/01/19 18:13:54;;;;;;;;;;;;;;;;;;5065068;28;19917;-76
2022/01/19 18:16:20;;;;;;;;;;;;;;;;;;5068133;28;19999;-76
2022/01/19 18:18:48;;;;;;;;;;;;;;;;;;5068274;28;19958;-76
2022/01/19 18:21:16;;;;;;;;;;;;;;;;;;5067062;28;19916;-76
2022/01/19 18:23:46;;;;;;;;;;;;;;;;;;5066897;28;20370;-77
2022/01/19 18:26:12;;;;;;;;;;;;;;;;;;5063799;28;19966;-75
2022/01/19 18:28:38;;;;;;;;;;;;;;;;;;5065026;28;19959;-75
2022/01/19 18:31:04;;;;;;;;;;;;;;;;;;5068027;28;20352;-76
2022/01/19 18:33:30;;;;;;;;;;;;;;;;;;5059287;28;20501;-75
2022/01/19 18:35:56;;;;;;;;;;;;;;;;;;5060350;28;19975;-77
